Time;durP1;ratioP1;P1;durP2;ratioP2;P2;SDS_P1;SDS_P2;PMS_P1;PMS_P2;Temp;Humidity;BMP_temperature;BMP_pressure;BME280_temperature;BME280_humidity;BME280_pressure;Samples;Min_cycle;Max_cycle;Signal;HPM_P1;HPM_P2
2022/02/28 00:02:26;;;;;;;9.70;3.28;;;;;;;0.58;49.94;100919.00;5043248;28;20087;-75
2022/02/28 00:04:52;;;;;;;9.88;3.08;;;;;;;0.58;49.96;100916.31;5050590;28;20053;-76
2022/02/28 00:07:19;;;;;;;12.43;3.03;;;;;;;0.50;50.22;100914.53;5048865;28;20114;-74
2022/02/28 00:09:45;;;;;;;10.02;3.55;;;;;;;0.51;50.40;100924.28;5049899;28;20063;-76
2022/02/28 00:12:11;;;;;;;8.40;2.88;;;;;;;0.46;50.28;100924.81;5050662;28;20048;-77
2022/02/28 00:14:37;;;;;;;10.45;3.58;;;;;;;0.31;50.54;100918.53;5051041;28;20079;-78
2022/02/28 00:17:05;;;;;;;9.43;3.45;;;;;;;0.38;50.71;100922.16;5050332;28;20073;-77
2022/02/28 00:19:32;;;;;;;8.82;2.78;;;;;;;0.35;50.85;100918.00;5050446;28;20579;-77
2022/02/28 00:21:58;;;;;;;12.13;3.17;;;;;;;0.34;50.74;100920.88;5065734;28;20049;-77
2022/02/28 00:24:24;;;;;;;10.18;3.28;;;;;;;0.32;50.73;100913.00;5050725;28;20041;-78
2022/02/28 00:26:50;;;;;;;9.13;2.83;;;;;;;0.34;50.70;100918.19;5050099;28;20536;-77
2022/02/28 00:29:16;;;;;;;10.48;3.45;;;;;;;0.27;51.06;100924.28;5030534;28;20049;-77
2022/02/28 00:31:43;;;;;;;12.93;3.55;;;;;;;0.29;50.91;100921.41;5048944;28;20532;-77
2022/02/28 00:34:09;;;;;;;11.13;3.53;;;;;;;0.27;50.97;100921.59;5050757;28;20048;-77
2022/02/28 00:36:37;;;;;;;11.10;3.88;;;;;;;0.22;51.14;100923.97;5032482;28;20068;-77
2022/02/28 00:39:04;;;;;;;13.38;3.20;;;;;;;0.24;51.02;100923.81;5057156;28;20456;-76
2022/02/28 00:41:30;;;;;;;8.63;3.08;;;;;;;0.14;51.36;100911.41;5049033;28;20424;-77
2022/02/28 00:43:57;;;;;;;8.63;3.00;;;;;;;0.14;51.22;100922.16;5031473;28;20140;-76
2022/02/28 00:46:23;;;;;;;15.13;3.50;;;;;;;0.13;51.31;100917.81;5040763;28;20102;-76
2022/02/28 00:48:50;;;;;;;7.70;3.03;;;;;;;0.18;51.23;100919.97;5049948;28;20076;-76
2022/02/28 00:51:18;;;;;;;10.15;2.70;;;;;;;0.25;51.24;100926.31;5049989;28;20072;-77
2022/02/28 00:53:44;;;;;;;10.53;3.37;;;;;;;0.25;51.06;100917.41;5050199;28;20489;-77
2022/02/28 00:56:10;;;;;;;9.35;3.50;;;;;;;0.24;51.18;100915.72;5049695;28;20045;-77
2022/02/28 00:58:36;;;;;;;9.25;3.03;;;;;;;0.32;50.98;100914.84;5031858;28;20048;-76
2022/02/28 01:01:03;;;;;;;10.07;3.25;;;;;;;0.25;51.03;100912.03;5048235;28;20080;-76
2022/02/28 01:03:30;;;;;;;10.95;3.70;;;;;;;0.23;51.13;100908.69;5049108;28;20045;-76
2022/02/28 01:05:56;;;;;;;11.32;3.00;;;;;;;0.18;51.36;100911.06;5031605;28;20053;-77
2022/02/28 01:08:23;;;;;;;9.02;2.95;;;;;;;0.18;51.42;100913.78;5042322;28;20068;-76
2022/02/28 01:10:50;;;;;;;10.27;2.83;;;;;;;0.13;51.42;100917.81;5050070;28;20509;-77
2022/02/28 01:13:17;;;;;;;11.10;3.70;;;;;;;0.10;51.49;100912.78;5048489;28;20049;-76
2022/02/28 01:15:43;;;;;;;9.25;3.17;;;;;;;0.11;51.37;100909.09;5048738;28;20055;-76
2022/02/28 01:18:10;;;;;;;12.25;3.33;;;;;;;0.04;51.66;100909.97;5031513;28;20090;-76
2022/02/28 01:20:36;;;;;;;8.30;3.00;;;;;;;0.07;51.69;100915.84;5047805;28;20592;-76
2022/02/28 01:23:03;;;;;;;10.88;3.08;;;;;;;0.00;51.60;100901.44;5031502;28;20567;-76
2022/02/28 01:25:30;;;;;;;11.23;3.47;;;;;;;0.10;51.52;100910.09;5049865;28;20102;-76
2022/02/28 01:27:57;;;;;;;8.15;2.85;;;;;;;0.10;51.51;100903.91;5048138;28;20052;-76
2022/02/28 01:30:24;;;;;;;12.30;3.35;;;;;;;0.07;51.61;100893.47;5042054;28;20059;-76
2022/02/28 01:32:50;;;;;;;9.23;2.90;;;;;;;0.01;51.62;100905.81;5048555;28;20075;-76
2022/02/28 01:35:16;;;;;;;8.23;3.10;;;;;;;-0.01;51.65;100907.81;5047743;28;20048;-77
2022/02/28 01:37:43;;;;;;;10.52;3.75;;;;;;;0.05;51.73;100901.75;5048414;28;20053;-77
2022/02/28 01:40:11;;;;;;;9.52;3.05;;;;;;;0.08;51.59;100893.31;5048622;28;20402;-76
2022/02/28 01:42:39;;;;;;;9.38;3.08;;;;;;;0.09;51.40;100903.03;5028229;28;20155;-77
2022/02/28 01:45:09;;;;;;;10.02;3.38;;;;;;;0.03;51.77;100900.22;5047680;28;21366;-76
2022/02/28 01:47:36;;;;;;;8.77;2.95;;;;;;;0.04;51.65;100899.22;5030988;28;20045;-76
2022/02/28 01:50:04;;;;;;;9.80;3.15;;;;;;;-0.05;51.94;100907.34;5056400;28;20053;-77
2022/02/28 01:52:31;;;;;;;9.52;3.22;;;;;;;-0.08;51.92;100904.16;5048390;28;20127;-76
2022/02/28 01:54:57;;;;;;;9.27;3.50;;;;;;;-0.07;51.72;100905.84;5051008;28;20110;-75
2022/02/28 01:57:23;;;;;;;10.85;3.65;;;;;;;-0.13;52.00;100903.88;5050676;28;20433;-76
2022/02/28 01:59:51;;;;;;;11.60;3.80;;;;;;;-0.18;52.17;100899.84;5051520;28;20057;-75
2022/02/28 02:02:17;;;;;;;;;;;;;;;-0.13;52.15;100903.88;5051834;28;20514;-76
2022/02/28 02:04:43;;;;;;;8.88;3.03;;;;;;;-0.39;52.13;100868.22;5051876;28;19924;-76
2022/02/28 02:07:10;;;;;;;10.25;3.33;;;;;;;-0.21;52.21;100900.19;5062050;28;20049;-76
2022/02/28 02:09:37;;;;;;;8.25;3.17;;;;;;;-0.22;52.26;100905.78;5053213;28;20049;-75
2022/02/28 02:12:05;;;;;;;10.13;3.20;;;;;;;-0.32;52.52;100905.97;5050955;28;20127;-75
2022/02/28 02:14:35;;;;;;;10.38;3.53;;;;;;;-0.36;52.60;100897.44;5031779;28;20128;-78
2022/02/28 02:17:02;;;;;;;9.32;3.80;;;;;;;-0.30;52.60;100895.91;5048048;28;20063;-76
2022/02/28 02:19:31;;;;;;;9.65;3.58;;;;;;;-0.31;52.57;100891.53;5052633;28;20040;-76
2022/02/28 02:21:58;;;;;;;10.27;3.30;;;;;;;-0.31;52.74;100892.34;5059518;28;20072;-76
2022/02/28 02:24:24;;;;;;;10.67;3.27;;;;;;;-0.30;52.50;100901.28;5055926;28;20049;-77
2022/02/28 02:26:50;;;;;;;9.98;3.50;;;;;;;-0.24;52.36;100897.88;5050297;28;20310;-77
2022/02/28 02:29:16;;;;;;;10.90;3.55;;;;;;;-0.26;52.42;100899.06;5051185;28;20045;-76
2022/02/28 02:31:43;;;;;;;10.07;3.80;;;;;;;-0.26;52.38;100899.06;5051124;28;20055;-76
2022/02/28 02:34:09;;;;;;;15.18;3.42;;;;;;;-0.36;52.55;100893.91;5050933;28;20048;-77
2022/02/28 02:36:35;;;;;;;11.45;3.45;;;;;;;-0.34;52.71;100891.88;5034227;28;20045;-78
2022/02/28 02:39:02;;;;;;;13.48;4.47;;;;;;;-0.43;52.81;100897.31;5034375;28;20056;-77
2022/02/28 02:41:29;;;;;;;9.27;3.47;;;;;;;-0.32;52.49;100897.91;5050776;28;20052;-76
2022/02/28 02:43:55;;;;;;;11.15;3.60;;;;;;;-0.36;52.74;100899.28;5051658;28;20052;-75
2022/02/28 02:46:21;;;;;;;9.48;3.67;;;;;;;-0.43;53.03;100899.13;5051092;28;20067;-76
2022/02/28 02:49:01;;;;;;;9.80;3.88;;;;;;;-0.52;52.92;100882.22;5033472;28;20593;-76
2022/02/28 02:51:27;;;;;;;11.17;3.57;;;;;;;-0.47;53.08;100893.28;5050892;28;20140;-75
2022/02/28 02:53:53;;;;;;;12.68;4.18;;;;;;;-0.54;53.25;100881.56;5017237;28;20143;-74
2022/02/28 02:56:21;;;;;;;11.63;4.03;;;;;;;-0.48;52.92;100880.84;5049660;28;20102;-75
2022/02/28 02:58:47;;;;;;;12.85;4.03;;;;;;;-0.53;53.32;100885.91;5034468;28;20059;-76
2022/02/28 03:01:13;;;;;;;11.88;3.85;;;;;;;-0.44;53.28;100881.34;5049948;28;20044;-75
2022/02/28 03:03:40;;;;;;;13.57;4.68;;;;;;;-0.46;53.01;100878.84;5030033;28;20103;-76
2022/02/28 03:06:07;;;;;;;13.57;3.90;;;;;;;-0.47;53.10;100879.00;5024317;28;20528;-75
2022/02/28 03:11:51;;;;;;;12.63;3.75;;;;;;;-0.55;53.33;100884.41;5047691;28;20110;-76
2022/02/28 03:14:19;;;;;;;10.93;3.85;;;;;;;-0.59;53.57;100879.38;5067204;28;20073;-77
2022/02/28 03:16:45;;;;;;;10.80;4.28;;;;;;;-0.57;53.62;100889.97;5050205;28;20069;-77
2022/02/28 03:19:11;;;;;;;15.77;3.67;;;;;;;-0.52;53.43;100900.19;5050069;28;20130;-79
2022/02/28 03:21:44;;;;;;;12.32;3.90;;;;;;;-0.53;53.52;100895.84;5049452;28;20520;-75
2022/02/28 03:24:10;;;;;;;14.95;3.95;;;;;;;-0.55;53.55;100895.16;5058300;28;20398;-75
2022/02/28 03:26:37;;;;;;;13.20;4.10;;;;;;;-0.57;53.48;100900.72;5030577;28;20713;-75
2022/02/28 03:29:06;;;;;;;12.60;3.97;;;;;;;-0.58;53.52;100897.19;5039820;28;20056;-76
2022/02/28 03:31:33;;;;;;;13.77;4.88;;;;;;;-0.53;53.32;100898.53;5060475;28;20174;-77
2022/02/28 03:33:59;;;;;;;12.90;4.25;;;;;;;-0.56;53.60;100905.06;5066591;28;20077;-76
2022/02/28 03:36:25;;;;;;;15.70;4.63;;;;;;;-0.57;53.57;100904.22;5050153;28;20502;-75
2022/02/28 03:38:56;;;;;;;14.40;4.95;;;;;;;-0.51;53.29;100900.00;5049991;28;20106;-75
2022/02/28 03:41:22;;;;;;;11.15;4.57;;;;;;;-0.58;53.59;100902.56;5031778;28;20056;-77
2022/02/28 03:43:49;;;;;;;11.93;4.03;;;;;;;-0.54;53.79;100903.06;5033576;28;20045;-77
2022/02/28 03:46:19;;;;;;;11.30;4.53;;;;;;;-0.57;53.68;100908.78;5049675;28;20059;-76
2022/02/28 03:49:11;;;;;;;10.82;4.72;;;;;;;-0.50;53.39;100915.13;5050347;28;20509;-76
2022/02/28 03:51:40;;;;;;;12.43;5.07;;;;;;;-0.50;53.49;100916.97;5028792;28;20046;-76
2022/02/28 03:54:11;;;;;;;15.38;4.60;;;;;;;-0.54;53.52;100923.72;5049626;28;20049;-75
2022/02/28 03:56:38;;;;;;;12.75;4.60;;;;;;;-0.49;53.33;100932.91;5029823;28;20045;-75
2022/02/28 03:59:05;;;;;;;11.00;4.35;;;;;;;-0.50;53.03;100919.66;5035236;28;20083;-75
2022/02/28 04:01:32;;;;;;;12.50;4.65;;;;;;;-0.52;53.51;100922.53;5049648;28;20057;-76
2022/02/28 04:03:59;;;;;;;13.88;4.13;;;;;;;-0.45;53.13;100926.19;5049524;28;20045;-76
2022/02/28 04:06:25;;;;;;;12.48;4.47;;;;;;;-0.49;53.56;100935.59;5032811;28;20083;-76
2022/02/28 04:08:51;;;;;;;15.95;4.00;;;;;;;-0.52;53.42;100927.91;5048804;28;20137;-74
2022/02/28 04:11:18;;;;;;;14.73;3.45;;;;;;;-0.49;53.36;100924.84;5048275;28;20052;-77
2022/02/28 04:13:44;;;;;;;10.43;4.22;;;;;;;-0.57;53.52;100924.91;5050843;28;20135;-77
2022/02/28 04:16:12;;;;;;;11.85;3.92;;;;;;;-0.66;53.58;100920.56;5049265;28;20045;-76
2022/02/28 04:18:48;;;;;;;10.00;4.30;;;;;;;-0.60;53.71;100936.00;5048282;28;20041;-77
2022/02/28 04:21:24;;;;;;;12.93;4.22;;;;;;;-0.56;53.48;100931.94;5042024;28;20049;-78
2022/02/28 04:23:51;;;;;;;11.90;4.10;;;;;;;-0.64;53.62;100935.50;5049076;28;20500;-77
2022/02/28 04:26:17;;;;;;;15.65;5.32;;;;;;;-0.58;53.60;100945.53;5032699;28;20088;-77
2022/02/28 04:28:44;;;;;;;10.63;4.22;;;;;;;-0.54;53.58;100946.03;5049193;28;20052;-76
2022/02/28 04:31:10;;;;;;;12.15;4.15;;;;;;;-0.58;53.46;100937.47;5032454;28;20053;-77
2022/02/28 04:33:36;;;;;;;11.02;3.70;;;;;;;-0.51;53.46;100947.56;5016293;28;20040;-77
2022/02/28 04:36:04;;;;;;;10.60;3.95;;;;;;;-0.51;53.61;100944.88;5048602;28;20056;-78
2022/02/28 04:38:30;;;;;;;11.93;4.00;;;;;;;-0.55;53.48;100948.88;5048962;28;20575;-78
2022/02/28 04:40:57;;;;;;;11.30;4.00;;;;;;;-0.64;53.63;100938.19;5048605;28;20052;-77
2022/02/28 04:43:24;;;;;;;11.75;3.97;;;;;;;-0.55;53.63;100943.50;5040895;28;20041;-77
2022/02/28 04:45:51;;;;;;;11.38;4.47;;;;;;;-0.54;53.62;100943.34;5057374;28;20083;-78
2022/02/28 04:48:17;;;;;;;17.80;4.00;;;;;;;-0.50;53.39;100938.47;5030606;28;20055;-78
2022/02/28 04:51:09;;;;;;;13.98;4.40;;;;;;;-0.49;53.34;100940.97;5046495;28;20060;-77
2022/02/28 04:53:37;;;;;;;19.13;4.93;;;;;;;-0.49;53.41;100942.84;5028582;28;20156;-77
2022/02/28 04:56:04;;;;;;;10.63;3.90;;;;;;;-0.48;53.37;100942.66;5038286;28;20052;-77
2022/02/28 04:58:32;;;;;;;13.98;4.25;;;;;;;-0.39;53.28;100939.94;5048268;28;20140;-77
2022/02/28 05:01:11;;;;;;;11.00;4.05;;;;;;;-0.41;53.18;100936.59;5056772;28;20060;-77
2022/02/28 05:03:40;;;;;;;12.00;4.22;;;;;;;-0.37;53.32;100948.66;5053045;28;20057;-76
2022/02/28 05:06:06;;;;;;;17.15;4.88;;;;;;;-0.39;53.25;100948.84;5055381;28;20342;-76
2022/02/28 05:08:34;;;;;;;12.30;4.57;;;;;;;-0.40;53.39;100957.91;5031387;28;20533;-76
2022/02/28 05:11:00;;;;;;;15.07;5.15;;;;;;;-0.56;53.18;100921.19;5029523;28;20525;-75
2022/02/28 05:16:42;;;;;;;14.88;4.65;;;;;;;-0.25;52.63;100958.03;5049726;28;20059;-76
2022/02/28 05:19:08;;;;;;;10.83;4.17;;;;;;;-0.19;52.82;100954.63;5047274;28;20135;-77
2022/02/28 05:21:35;;;;;;;12.48;4.90;;;;;;;-0.12;52.72;100946.69;5026649;28;20343;-75
2022/02/28 05:24:06;;;;;;;16.67;4.45;;;;;;;-0.12;52.75;100948.56;5040633;28;20063;-70
2022/02/28 05:26:33;;;;;;;14.55;4.22;;;;;;;-0.06;52.59;100939.78;5049878;28;20098;-69
2022/02/28 05:28:59;;;;;;;13.90;4.40;;;;;;;-0.01;52.43;100949.00;5043759;28;20174;-72
2022/02/28 05:31:26;;;;;;;14.88;3.85;;;;;;;0.04;52.39;100958.38;5028210;28;20053;-73
2022/02/28 05:34:10;;;;;;;12.93;4.20;;;;;;;0.04;52.56;100963.75;5053935;28;20052;-72
2022/02/28 05:36:36;;;;;;;14.95;4.40;;;;;;;0.11;52.46;100965.56;5047106;28;20045;-73
2022/02/28 05:39:23;;;;;;;14.57;4.18;;;;;;;0.07;52.38;100969.63;5046493;28;20067;-71
2022/02/28 05:41:49;;;;;;;11.80;3.90;;;;;;;0.11;52.11;100957.50;5047752;28;20108;-71
2022/02/28 05:44:15;;;;;;;16.80;5.33;;;;;;;0.19;52.05;100966.56;5048101;28;20045;-71
2022/02/28 05:46:42;;;;;;;9.93;4.13;;;;;;;0.33;51.79;100965.78;5040521;28;20057;-74
2022/02/28 05:49:17;;;;;;;10.88;3.63;;;;;;;0.37;51.67;100972.47;5013663;28;20096;-73
2022/02/28 05:55:46;;;;;;;11.63;4.40;;;;;;;0.38;51.46;100954.47;5035270;28;20098;-72
2022/02/28 05:58:14;;;;;;;15.65;3.75;;;;;;;0.58;51.40;100975.53;5036157;28;20050;-72
2022/02/28 06:00:40;;;;;;;17.27;4.70;;;;;;;0.63;51.20;100971.28;5043655;28;20044;-73
2022/02/28 06:03:06;;;;;;;16.73;4.32;;;;;;;0.64;51.11;100970.28;5032086;28;20056;-73
2022/02/28 06:05:32;;;;;;;10.85;4.22;;;;;;;0.63;51.53;100978.53;5044968;28;20046;-72
2022/02/28 06:07:58;;;;;;;12.55;4.60;;;;;;;0.69;51.28;100967.88;5032018;28;20509;-72
2022/02/28 06:10:24;;;;;;;13.57;4.63;;;;;;;0.75;51.12;100976.22;5049421;28;20057;-72
2022/02/28 06:12:51;;;;;;;16.73;4.82;;;;;;;0.76;51.19;100978.75;5046539;28;20052;-74
2022/02/28 06:15:19;;;;;;;15.02;5.32;;;;;;;0.87;51.02;100973.97;5045535;28;20103;-74
2022/02/28 06:17:46;;;;;;;20.17;4.93;;;;;;;0.94;51.05;100977.59;5048168;28;20037;-74
2022/02/28 06:20:12;;;;;;;11.23;4.05;;;;;;;1.02;50.66;100979.38;5045978;28;20097;-72
2022/02/28 06:22:38;;;;;;;13.70;4.55;;;;;;;1.08;50.65;100979.47;5042817;28;20068;-73
2022/02/28 06:25:05;;;;;;;14.10;4.32;;;;;;;1.13;50.51;100971.69;5045669;28;20063;-72
2022/02/28 06:27:31;;;;;;;13.40;4.73;;;;;;;1.14;50.40;100972.53;5043069;28;20125;-74
2022/02/28 06:29:58;;;;;;;16.65;5.90;;;;;;;1.12;50.33;100971.88;5040595;28;20308;-73
2022/02/28 06:32:26;;;;;;;16.38;4.72;;;;;;;1.02;50.63;100969.47;5047131;28;20045;-72
2022/02/28 06:34:53;;;;;;;;;;;;;;;1.03;50.58;100965.75;5051127;28;20053;-72
2022/02/28 06:37:19;;;;;;;13.38;4.82;;;;;;;1.04;50.41;100970.09;5046351;28;19974;-72
2022/02/28 06:39:45;;;;;;;15.27;5.10;;;;;;;1.15;50.07;100976.91;5048130;28;20064;-73
2022/02/28 06:42:12;;;;;;;14.80;4.60;;;;;;;1.13;50.11;100978.94;5050089;28;20079;-72
2022/02/28 06:44:38;;;;;;;16.50;4.72;;;;;;;1.26;50.00;100981.84;5048824;28;20056;-70
2022/02/28 06:47:05;;;;;;;19.27;4.72;;;;;;;1.38;49.69;100974.13;5051942;28;20045;-72
2022/02/28 06:49:31;;;;;;;13.00;5.22;;;;;;;1.56;49.63;100978.31;5050672;28;20557;-72
2022/02/28 06:52:00;;;;;;;16.10;4.50;;;;;;;1.76;49.23;100992.06;5046689;28;20138;-72
2022/02/28 06:54:26;;;;;;;26.17;5.43;;;;;;;1.77;49.22;100979.41;5049972;28;20048;-72
2022/02/28 06:56:52;;;;;;;15.07;4.70;;;;;;;1.88;48.92;100983.50;5059798;28;20088;-71
2022/02/28 06:59:18;;;;;;;15.45;4.50;;;;;;;2.02;48.77;100982.63;5048829;28;20049;-72
2022/02/28 07:01:45;;;;;;;13.17;4.53;;;;;;;2.03;48.76;100988.88;5049445;28;20049;-71
2022/02/28 07:04:37;;;;;;;15.68;4.90;;;;;;;2.19;48.42;100990.53;5048400;28;20055;-73
2022/02/28 07:07:04;;;;;;;19.10;5.03;;;;;;;2.32;47.96;100985.25;5049351;28;20044;-72
2022/02/28 07:09:33;;;;;;;18.85;4.03;;;;;;;2.28;48.17;100992.06;5050397;28;20315;-73
2022/02/28 07:12:03;;;;;;;18.73;5.03;;;;;;;2.26;48.04;100959.03;5032606;28;20464;-73
2022/02/28 07:14:29;;;;;;;14.60;5.20;;;;;;;2.51;47.79;100980.28;5055955;28;20131;-71
2022/02/28 07:16:55;;;;;;;21.40;4.10;;;;;;;2.54;47.61;100975.31;5042846;28;20060;-72
2022/02/28 07:19:21;;;;;;;13.10;4.47;;;;;;;2.48;47.70;100961.75;5034280;28;20057;-73
2022/02/28 07:21:49;;;;;;;16.83;5.00;;;;;;;2.73;47.17;100972.16;5048985;28;20059;-72
2022/02/28 07:24:15;;;;;;;11.05;4.38;;;;;;;2.91;46.81;100982.50;5048605;28;20067;-72
2022/02/28 07:26:41;;;;;;;16.80;4.57;;;;;;;3.01;46.89;100984.88;5043844;28;20077;-72
2022/02/28 07:29:07;;;;;;;21.42;5.47;;;;;;;3.10;46.77;100971.03;5025448;28;20050;-73
2022/02/28 07:31:33;;;;;;;15.43;4.07;;;;;;;3.23;46.63;100989.19;5035561;28;20059;-72
2022/02/28 07:33:59;;;;;;;12.63;4.35;;;;;;;3.30;46.38;100993.84;5044150;28;20477;-70
2022/02/28 07:36:26;;;;;;;10.63;3.95;;;;;;;3.36;46.12;100976.81;5045822;28;20044;-70
2022/02/28 07:38:54;;;;;;;15.43;4.22;;;;;;;3.51;46.09;100982.09;5047148;28;20043;-70
2022/02/28 07:41:20;;;;;;;11.25;4.05;;;;;;;3.54;46.05;100974.41;5047210;28;20053;-69
2022/02/28 07:43:47;;;;;;;16.70;4.10;;;;;;;3.63;46.13;100985.09;5050066;28;20136;-71
2022/02/28 07:46:13;;;;;;;12.68;3.97;;;;;;;3.72;45.85;100992.00;5045908;28;20048;-69
2022/02/28 07:48:39;;;;;;;13.15;3.97;;;;;;;3.86;45.54;100987.50;5049191;28;20455;-72
2022/02/28 07:51:05;;;;;;;15.75;4.22;;;;;;;4.01;45.26;100981.09;5051065;28;20049;-70
2022/02/28 07:53:32;;;;;;;17.03;4.80;;;;;;;4.16;45.13;100979.09;5048648;28;20048;-70
2022/02/28 07:55:58;;;;;;;12.73;4.18;;;;;;;4.33;44.70;100978.72;5033448;28;20787;-71
2022/02/28 07:58:24;;;;;;;16.67;4.07;;;;;;;4.45;44.74;100976.22;5046803;28;20389;-71
2022/02/28 08:00:50;;;;;;;10.70;3.80;;;;;;;4.53;44.35;100970.63;5045014;28;20102;-69
2022/02/28 08:03:16;;;;;;;18.70;4.80;;;;;;;4.65;44.24;100979.78;5044349;28;20036;-71
2022/02/28 08:05:42;;;;;;;10.13;4.00;;;;;;;4.62;44.05;100980.22;5038336;28;20046;-71
2022/02/28 08:08:09;;;;;;;10.20;3.97;;;;;;;4.73;43.96;100975.25;5036013;28;20389;-70
2022/02/28 08:10:36;;;;;;;10.90;3.67;;;;;;;4.63;43.83;100975.66;5049994;28;20047;-72
2022/02/28 08:13:03;;;;;;;11.55;3.85;;;;;;;4.56;43.94;100975.63;5047758;28;20083;-70
2022/02/28 08:15:29;;;;;;;9.27;3.53;;;;;;;4.57;43.76;100971.03;5047719;28;20136;-70
2022/02/28 08:17:55;;;;;;;13.75;4.28;;;;;;;4.54;43.86;100978.53;5041883;28;20045;-68
2022/02/28 08:20:21;;;;;;;12.05;3.67;;;;;;;4.79;43.60;100982.53;5049452;28;20045;-71
2022/02/28 08:22:47;;;;;;;21.63;4.47;;;;;;;4.89;43.19;100980.25;5046351;28;20051;-69
2022/02/28 08:25:13;;;;;;;11.02;3.45;;;;;;;4.92;43.10;100979.00;5048545;28;20222;-71
2022/02/28 08:27:39;;;;;;;21.17;3.97;;;;;;;4.92;43.03;100974.41;5046274;28;20391;-69
2022/02/28 08:30:07;;;;;;;13.60;4.45;;;;;;;4.90;42.98;100976.50;5031107;28;20098;-70
2022/02/28 08:32:33;;;;;;;15.35;4.25;;;;;;;4.89;42.98;100982.97;5046810;28;20048;-70
2022/02/28 08:34:59;;;;;;;10.55;3.92;;;;;;;4.76;43.08;100972.09;5041907;28;20052;-68
2022/02/28 08:37:26;;;;;;;13.68;4.22;;;;;;;4.59;43.19;100971.66;5049305;28;20045;-70
2022/02/28 08:39:52;;;;;;;12.88;3.63;;;;;;;4.51;43.16;100972.69;5047865;28;20099;-73
2022/02/28 08:42:18;;;;;;;15.18;5.07;;;;;;;4.44;43.25;100961.84;5029706;28;20435;-73
2022/02/28 08:44:44;;;;;;;14.70;5.15;;;;;;;4.42;43.32;100963.94;5042149;28;20049;-71
2022/02/28 08:47:11;;;;;;;12.65;5.30;;;;;;;4.42;43.12;100963.94;5041298;28;20421;-73
2022/02/28 08:49:37;;;;;;;14.48;5.25;;;;;;;4.56;43.12;100970.22;5036211;28;20045;-73
2022/02/28 08:52:06;;;;;;;13.35;4.53;;;;;;;4.62;43.10;100968.56;5041613;28;20045;-73
2022/02/28 08:54:32;;;;;;;13.15;4.00;;;;;;;4.71;42.47;100945.63;5039348;28;20456;-74
2022/02/28 08:57:00;;;;;;;10.20;3.50;;;;;;;4.96;42.43;100972.13;5027352;28;20048;-74
2022/02/28 08:59:26;;;;;;;10.25;3.30;;;;;;;5.10;42.02;100959.38;5042462;28;20043;-74
2022/02/28 09:01:52;;;;;;;13.15;3.88;;;;;;;5.26;41.94;100955.41;5040290;28;20136;-74
2022/02/28 09:04:19;;;;;;;9.10;3.58;;;;;;;5.38;41.61;100966.44;5040068;28;20045;-75
2022/02/28 09:06:44;;;;;;;11.13;3.63;;;;;;;5.42;41.45;100966.88;5072141;28;20147;-75
2022/02/28 09:09:11;;;;;;;14.73;3.15;;;;;;;5.54;41.35;100965.13;5065184;28;20040;-75
2022/02/28 09:11:37;;;;;;;12.10;3.30;;;;;;;5.73;41.15;100960.72;5050031;28;20048;-73
2022/02/28 09:14:02;;;;;;;13.93;3.13;;;;;;;5.88;40.56;100960.47;5048064;28;20452;-72
2022/02/28 09:16:31;;;;;;;9.68;3.17;;;;;;;5.60;40.97;100953.44;5048100;28;20072;-74
2022/02/28 09:18:57;;;;;;;9.55;3.40;;;;;;;5.71;41.14;100959.28;5041917;28;20048;-72
2022/02/28 09:21:24;;;;;;;10.60;3.50;;;;;;;5.66;41.16;100957.19;5043472;28;20140;-74
2022/02/28 09:23:50;;;;;;;13.43;3.33;;;;;;;5.73;40.94;100963.41;5043757;28;20041;-73
2022/02/28 09:26:16;;;;;;;7.07;2.67;;;;;;;5.65;41.08;100948.22;5041475;28;20073;-72
2022/02/28 09:28:42;;;;;;;8.32;3.10;;;;;;;5.69;41.07;100959.47;5046139;28;20509;-75
2022/02/28 09:31:08;;;;;;;9.57;3.05;;;;;;;5.52;41.35;100962.66;5046962;28;20048;-73
2022/02/28 09:33:34;;;;;;;11.07;3.17;;;;;;;5.39;41.40;100963.53;5042356;28;20045;-72
2022/02/28 09:36:01;;;;;;;7.40;2.97;;;;;;;5.39;41.28;100952.69;5048568;28;20140;-72
2022/02/28 09:38:27;;;;;;;9.20;3.13;;;;;;;5.36;41.43;100952.25;5050238;28;20073;-74
2022/02/28 09:40:56;;;;;;;9.43;2.92;;;;;;;5.32;41.37;100954.56;5035334;28;20048;-73
2022/02/28 09:43:56;;;;;;;15.27;3.28;;;;;;;5.33;41.45;100958.94;5040422;28;20148;-75
2022/02/28 09:46:42;;;;;;;7.45;2.95;;;;;;;5.34;41.58;100952.47;5047593;28;20067;-72
2022/02/28 09:49:27;;;;;;;8.88;3.83;;;;;;;5.22;41.65;100946.84;5036196;28;20048;-72
2022/02/28 09:51:53;;;;;;;12.90;3.28;;;;;;;5.23;41.68;100950.41;5046274;28;20053;-72
2022/02/28 09:54:40;;;;;;;11.95;3.30;;;;;;;5.19;41.93;100941.00;5044523;28;20496;-73
2022/02/28 09:57:46;;;;;;;9.13;2.90;;;;;;;5.17;41.65;100940.41;5043085;28;20427;-72
2022/02/28 10:00:20;;;;;;;8.32;2.70;;;;;;;5.34;41.73;100944.31;5033960;28;20049;-72
2022/02/28 10:02:48;;;;;;;10.15;3.10;;;;;;;5.31;41.58;100938.50;5034752;28;20517;-74
2022/02/28 10:05:17;;;;;;;8.30;3.10;;;;;;;5.19;41.74;100932.88;5030112;28;20136;-74
2022/02/28 10:07:49;;;;;;;14.90;3.25;;;;;;;5.09;42.00;100942.28;5045491;28;20056;-74
2022/02/28 10:10:16;;;;;;;7.88;2.90;;;;;;;5.13;41.78;100944.59;5035232;28;20041;-75
2022/02/28 10:12:43;;;;;;;8.32;3.00;;;;;;;5.06;41.74;100941.88;5033700;28;20696;-75
2022/02/28 10:15:12;;;;;;;7.60;2.80;;;;;;;5.11;41.76;100937.50;5046296;28;20442;-74
2022/02/28 10:17:46;;;;;;;8.50;3.00;;;;;;;5.06;41.81;100939.97;5045350;28;20053;-74
2022/02/28 10:20:15;;;;;;;9.70;2.95;;;;;;;5.02;41.75;100918.94;5042022;28;20040;-74
2022/02/28 10:22:41;;;;;;;12.10;3.10;;;;;;;5.15;41.48;100939.78;5043032;28;20145;-73
2022/02/28 10:25:08;;;;;;;9.15;2.85;;;;;;;5.11;41.54;100936.66;5036895;28;20583;-72
2022/02/28 10:28:17;;;;;;;8.52;2.75;;;;;;;5.18;41.54;100934.78;5020498;28;20072;-72
2022/02/28 10:31:03;;;;;;;7.53;2.70;;;;;;;5.21;40.93;100928.91;5050731;28;20049;-75
2022/02/28 10:33:48;;;;;;;7.43;2.78;;;;;;;5.11;41.26;100923.09;5045632;28;20520;-76
2022/02/28 10:36:35;;;;;;;12.63;3.70;;;;;;;5.14;41.38;100927.25;5051402;28;20048;-76
2022/02/28 10:39:10;;;;;;;10.52;3.60;;;;;;;5.18;41.36;100921.22;5043909;28;20061;-75
2022/02/28 10:41:39;;;;;;;11.43;3.50;;;;;;;5.24;41.34;100917.66;5040348;28;20053;-76
2022/02/28 10:44:10;;;;;;;15.20;3.20;;;;;;;5.26;41.41;100912.03;5050509;28;20537;-74
2022/02/28 10:46:42;;;;;;;9.95;3.70;;;;;;;5.24;41.15;100901.38;5047652;28;20051;-73
2022/02/28 10:49:17;;;;;;;7.22;3.08;;;;;;;5.31;41.12;100901.38;5048059;28;20605;-76
2022/02/28 10:51:46;;;;;;;11.00;3.50;;;;;;;5.50;41.08;100899.63;5048318;28;20052;-75
2022/02/28 10:54:15;;;;;;;8.48;3.17;;;;;;;5.60;40.83;100920.03;5048949;28;20179;-73
2022/02/28 10:57:01;;;;;;;13.90;3.60;;;;;;;5.68;40.67;100914.41;5030583;28;20046;-75
2022/02/28 10:59:29;;;;;;;7.72;2.97;;;;;;;5.70;40.40;100923.16;5043032;28;20567;-76
2022/02/28 11:01:56;;;;;;;10.55;3.25;;;;;;;5.75;40.18;100912.47;5048248;28;20090;-74
2022/02/28 11:04:33;;;;;;;7.57;2.80;;;;;;;5.64;39.91;100894.16;5048941;28;20167;-76
2022/02/28 11:06:59;;;;;;;;;;;;;;;5.81;39.99;100917.06;5049566;28;20053;-74
2022/02/28 11:09:30;;;;;;;8.57;2.83;;;;;;;5.78;39.85;100912.06;5051124;28;19994;-74
2022/02/28 11:12:00;;;;;;;7.10;2.90;;;;;;;5.79;39.63;100907.44;5051686;28;20048;-72
2022/02/28 11:14:27;;;;;;;10.23;2.88;;;;;;;5.76;39.34;100897.03;5051742;28;20501;-74
2022/02/28 11:16:55;;;;;;;12.40;2.85;;;;;;;5.79;39.59;100912.88;5065269;28;20048;-73
2022/02/28 11:19:21;;;;;;;10.60;2.90;;;;;;;5.84;38.93;100910.34;5026739;28;20484;-73
2022/02/28 11:21:48;;;;;;;8.75;3.05;;;;;;;6.09;38.62;100896.06;5038246;28;20060;-74
2022/02/28 11:24:14;;;;;;;11.13;2.90;;;;;;;6.12;38.08;100894.78;5049504;28;20639;-73
2022/02/28 11:26:41;;;;;;;12.43;2.97;;;;;;;6.28;37.57;100898.84;5043118;28;20110;-73
2022/02/28 11:29:07;;;;;;;7.35;2.83;;;;;;;6.34;37.40;100898.00;5048073;28;20053;-74
2022/02/28 11:31:34;;;;;;;13.48;3.67;;;;;;;6.34;37.15;100882.50;5013754;28;20416;-73
2022/02/28 11:34:05;;;;;;;10.93;3.78;;;;;;;6.39;37.27;100890.81;5045374;28;20064;-73
2022/02/28 11:36:45;;;;;;;8.38;3.15;;;;;;;6.44;36.62;100878.50;5050231;28;20491;-73
2022/02/28 11:39:12;;;;;;;7.38;3.20;;;;;;;6.50;36.91;100883.03;5049603;28;20057;-73
2022/02/28 11:41:38;;;;;;;9.82;3.20;;;;;;;6.59;36.80;100881.72;5050591;28;20087;-74